Time;durP1;ratioP1;P1;durP2;ratioP2;P2;SDS_P1;SDS_P2;PMS_P1;PMS_P2;Temp;Humidity;BMP_temperature;BMP_pressure;BME280_temperature;BME280_humidity;BME280_pressure;Samples;Min_cycle;Max_cycle;Signal;HPM_P1;HPM_P2
2022/01/11 00:00:15;;;;;;;31.77;15.17;;;3.90;77.90;;;;;;5089948;28;20352;-63
2022/01/11 00:02:44;;;;;;;27.73;14.43;;;3.80;78.00;;;;;;5094542;28;20028;-63
2022/01/11 00:05:22;;;;;;;48.57;15.13;;;3.80;78.10;;;;;;5082633;28;20020;-63
2022/01/11 00:07:48;;;;;;;29.63;14.87;;;3.80;78.20;;;;;;5095148;28;20464;-63
2022/01/11 00:10:22;;;;;;;31.17;16.27;;;3.80;78.20;;;;;;5092333;28;20036;-63
2022/01/11 00:12:47;;;;;;;39.87;16.30;;;3.80;78.30;;;;;;5091636;28;20399;-63
2022/01/11 00:15:13;;;;;;;29.10;14.80;;;3.80;78.30;;;;;;5094080;28;20027;-63
2022/01/11 00:17:39;;;;;;;39.77;15.80;;;3.80;78.40;;;;;;5095032;28;20071;-63
2022/01/11 00:20:06;;;;;;;33.97;15.63;;;3.80;78.40;;;;;;5094021;28;20028;-63
2022/01/11 00:22:36;;;;;;;34.80;15.60;;;3.80;78.50;;;;;;5078185;28;20028;-63
2022/01/11 00:25:01;;;;;;;28.50;14.53;;;3.80;78.50;;;;;;5073595;28;20024;-63
2022/01/11 00:27:27;;;;;;;35.57;16.17;;;3.80;78.50;;;;;;5092186;28;20051;-63
2022/01/11 00:29:55;;;;;;;30.97;15.47;;;3.80;78.50;;;;;;5094217;28;20107;-63
2022/01/11 00:32:37;;;;;;;33.80;15.70;;;3.80;78.50;;;;;;5076663;28;20025;-63
2022/01/11 00:35:03;;;;;;;40.67;16.63;;;3.80;78.50;;;;;;5092540;28;20568;-63
2022/01/11 00:37:29;;;;;;;47.10;16.63;;;3.80;78.60;;;;;;5093998;28;20353;-63
2022/01/11 00:39:55;;;;;;;30.83;16.33;;;3.80;78.60;;;;;;5093041;28;20023;-63
2022/01/11 00:42:22;;;;;;;31.20;15.60;;;3.80;78.70;;;;;;5094243;28;20016;-63
2022/01/11 00:44:48;;;;;;;35.63;15.27;;;3.80;78.70;;;;;;5093546;28;20024;-63
2022/01/11 00:47:15;;;;;;;30.67;15.93;;;3.80;78.70;;;;;;5093846;28;20508;-63
2022/01/11 00:49:41;;;;;;;28.63;14.97;;;3.80;78.70;;;;;;5092491;28;20020;-63
2022/01/11 00:52:07;;;;;;;31.53;15.33;;;3.80;78.80;;;;;;5094276;28;20069;-63
2022/01/11 00:54:33;;;;;;;33.03;15.17;;;3.70;78.70;;;;;;5093857;28;20115;-63
2022/01/11 00:56:58;;;;;;;28.20;14.07;;;3.70;79.40;;;;;;5094308;28;20056;-63
2022/01/11 00:59:24;;;;;;;26.90;13.83;;;3.70;78.80;;;;;;5079752;28;20028;-63
2022/01/11 01:01:50;;;;;;;40.70;14.57;;;3.70;78.80;;;;;;5091532;28;20073;-63
2022/01/11 01:04:16;;;;;;;36.23;14.77;;;3.70;78.80;;;;;;5093926;28;20062;-63
2022/01/11 01:06:42;;;;;;;30.63;15.17;;;3.70;78.70;;;;;;5093406;28;20499;-63
2022/01/11 01:09:10;;;;;;;32.73;14.53;;;3.70;78.60;;;;;;5093072;28;20052;-63
2022/01/11 01:11:43;;;;;;;37.13;13.87;;;3.70;78.60;;;;;;5092836;28;20419;-63
2022/01/11 01:14:10;;;;;;;34.63;13.20;;;3.70;78.70;;;;;;5094602;28;20020;-63
2022/01/11 01:16:36;;;;;;;27.87;14.43;;;3.70;78.70;;;;;;5092834;28;20024;-63
2022/01/11 01:19:15;;;;;;;24.50;13.43;;;3.60;78.70;;;;;;5092954;28;20060;-63
2022/01/11 01:21:41;;;;;;;27.43;15.30;;;3.60;78.70;;;;;;5092756;28;20059;-63
2022/01/11 01:24:10;;;;;;;28.00;14.93;;;3.60;78.70;;;;;;5075965;28;20027;-63
2022/01/11 01:26:36;;;;;;;33.87;15.37;;;3.60;78.70;;;;;;5093769;28;20093;-64
2022/01/11 01:29:02;;;;;;;28.63;15.60;;;3.60;78.70;;;;;;5093911;28;20036;-63
2022/01/11 01:31:29;;;;;;;26.90;14.37;;;3.60;78.70;;;;;;5092297;28;20029;-63
2022/01/11 01:33:56;;;;;;;23.07;13.03;;;3.70;78.70;;;;;;5092045;28;20028;-63
2022/01/11 01:36:22;;;;;;;26.23;14.07;;;3.60;78.60;;;;;;5093843;28;20028;-63
2022/01/11 01:38:48;;;;;;;31.87;15.07;;;3.60;78.70;;;;;;5092907;28;20352;-63
2022/01/11 01:41:17;;;;;;;27.73;14.93;;;3.60;78.70;;;;;;5092810;28;20119;-63
2022/01/11 01:43:44;;;;;;;31.07;15.67;;;3.70;78.70;;;;;;5093022;28;20041;-63
2022/01/11 01:46:10;;;;;;;26.23;14.13;;;3.70;78.70;;;;;;5094034;28;20028;-63
2022/01/11 01:48:36;;;;;;;26.30;12.60;;;3.60;78.70;;;;;;5090698;28;20024;-63
2022/01/11 01:51:07;;;;;;;23.63;12.63;;;3.60;78.70;;;;;;5093016;28;20032;-63
2022/01/11 01:53:34;;;;;;;27.63;14.83;;;3.60;78.60;;;;;;5092694;28;20024;-63
2022/01/11 01:56:00;;;;;;;26.87;13.97;;;3.60;78.50;;;;;;5093028;28;20119;-63
2022/01/11 01:58:26;;;;;;;29.20;13.23;;;3.60;78.50;;;;;;5092070;28;20115;-63
2022/01/11 02:00:55;;;;;;;22.43;13.10;;;3.60;78.50;;;;;;5088199;28;20525;-63
2022/01/11 02:03:29;;;;;;;25.63;14.63;;;3.60;78.60;;;;;;5097078;28;20024;-63
2022/01/11 02:05:56;;;;;;;27.17;13.83;;;3.60;78.60;;;;;;5073812;28;20094;-63
2022/01/11 02:08:22;;;;;;;29.33;14.30;;;3.50;78.70;;;;;;5087754;28;20117;-63
2022/01/11 02:10:48;;;;;;;30.80;14.80;;;3.50;78.60;;;;;;5092468;28;20031;-63
2022/01/11 02:13:14;;;;;;;23.53;12.30;;;3.60;78.70;;;;;;5095624;28;20127;-63
2022/01/11 02:15:40;;;;;;;29.00;14.07;;;3.60;78.60;;;;;;5096185;28;20170;-63
2022/01/11 02:18:08;;;;;;;30.60;13.40;;;3.60;78.50;;;;;;5095924;28;20016;-63
2022/01/11 02:20:35;;;;;;;34.83;14.47;;;3.60;78.50;;;;;;5095987;28;20080;-63
2022/01/11 02:23:01;;;;;;;32.43;15.17;;;3.60;78.50;;;;;;5095632;28;20524;-64
2022/01/11 02:25:27;;;;;;;27.43;14.30;;;3.60;78.50;;;;;;5095992;28;20060;-63
2022/01/11 02:27:52;;;;;;;31.40;14.27;;;3.50;78.50;;;;;;5095115;28;20051;-63
2022/01/11 02:30:18;;;;;;;30.33;16.03;;;3.60;78.60;;;;;;5095343;28;20036;-63
2022/01/11 02:32:51;;;;;;;26.53;14.80;;;3.60;78.50;;;;;;5094260;28;20414;-64
2022/01/11 02:35:18;;;;;;;28.30;15.17;;;3.60;78.50;;;;;;5092450;28;20451;-63
2022/01/11 02:37:45;;;;;;;30.47;15.87;;;3.60;78.50;;;;;;5095551;28;20097;-64
2022/01/11 02:40:14;;;;;;;28.57;15.07;;;3.60;78.50;;;;;;5075442;28;20025;-63
2022/01/11 02:42:40;;;;;;;27.67;13.60;;;3.60;78.60;;;;;;5084932;28;20116;-63
2022/01/11 02:45:18;;;;;;;27.57;14.87;;;3.60;78.60;;;;;;5085502;28;20127;-63
2022/01/11 02:47:46;;;;;;;26.83;13.93;;;3.60;78.60;;;;;;5097433;28;20058;-63
2022/01/11 02:50:14;;;;;;;26.87;15.47;;;3.50;78.50;;;;;;5095254;28;20040;-64
2022/01/11 02:52:45;;;;;;;27.70;13.13;;;3.60;78.60;;;;;;5095081;28;20051;-63
2022/01/11 02:55:14;;;;;;;27.87;13.67;;;3.50;78.50;;;;;;5095858;28;20055;-63
2022/01/11 02:57:41;;;;;;;25.53;13.87;;;3.60;78.60;;;;;;5095795;28;20026;-64
2022/01/11 03:00:14;;;;;;;;;;;3.50;78.50;;;;;;5095675;28;20032;-64
2022/01/11 03:02:40;;;;;;;29.47;15.63;;;3.50;78.60;;;;;;5094762;28;20260;-63
2022/01/11 03:05:08;;;;;;;23.63;12.87;;;3.50;78.60;;;;;;5095370;28;20020;-64
2022/01/11 03:07:34;;;;;;;32.07;15.90;;;3.50;78.60;;;;;;5107542;28;20031;-64
2022/01/11 03:10:02;;;;;;;34.13;17.33;;;3.50;79.30;;;;;;5094985;28;20020;-64
2022/01/11 03:12:33;;;;;;;28.33;15.07;;;3.50;78.70;;;;;;5094632;28;20081;-63
2022/01/11 03:14:59;;;;;;;28.43;14.50;;;3.50;78.70;;;;;;5094951;28;20020;-63
2022/01/11 03:17:26;;;;;;;29.33;16.23;;;3.50;78.70;;;;;;5094997;28;20020;-64
2022/01/11 03:19:53;;;;;;;32.03;17.77;;;3.50;78.80;;;;;;5077998;28;20090;-63
2022/01/11 03:22:20;;;;;;;29.97;15.50;;;3.50;78.80;;;;;;5077867;28;20475;-63
2022/01/11 03:24:46;;;;;;;29.70;15.27;;;3.60;78.90;;;;;;5093738;28;20361;-64
2022/01/11 03:27:12;;;;;;;29.47;15.73;;;3.60;78.90;;;;;;5094247;28;20123;-63
2022/01/11 03:29:39;;;;;;;31.43;16.93;;;3.60;78.90;;;;;;5094658;28;20035;-64
2022/01/11 03:32:07;;;;;;;30.00;16.37;;;3.50;78.80;;;;;;5079774;28;20457;-63
2022/01/11 03:34:33;;;;;;;30.50;16.47;;;3.60;79.00;;;;;;5095518;28;20027;-63
2022/01/11 03:36:59;;;;;;;26.83;14.90;;;3.60;78.90;;;;;;5094518;28;20433;-63
2022/01/11 03:39:26;;;;;;;26.73;14.80;;;3.60;79.00;;;;;;5094707;28;20016;-64
2022/01/11 03:41:52;;;;;;;27.60;13.67;;;3.50;78.90;;;;;;5097243;28;20054;-63
2022/01/11 03:44:18;;;;;;;26.33;15.00;;;3.60;78.90;;;;;;5094327;28;20445;-64
2022/01/11 03:46:44;;;;;;;27.40;15.83;;;3.60;78.90;;;;;;5095299;28;20129;-64
2022/01/11 03:49:11;;;;;;;29.23;13.97;;;3.50;78.90;;;;;;5077729;28;20055;-64
2022/01/11 03:51:39;;;;;;;25.47;15.10;;;3.50;78.90;;;;;;5094101;28;20082;-63
2022/01/11 03:54:14;;;;;;;23.30;14.13;;;3.50;78.90;;;;;;5094376;28;20056;-63
2022/01/11 03:56:56;;;;;;;28.87;15.17;;;3.50;78.80;;;;;;5093999;28;20058;-63
2022/01/11 03:59:27;;;;;;;27.83;16.27;;;3.60;78.80;;;;;;5094457;28;20026;-64
2022/01/11 04:01:52;;;;;;;26.67;14.40;;;3.50;78.70;;;;;;5076931;28;20111;-63
2022/01/11 04:04:19;;;;;;;27.50;16.03;;;3.50;78.70;;;;;;5093712;28;20118;-63
2022/01/11 04:06:45;;;;;;;26.90;15.10;;;3.50;78.70;;;;;;5093884;28;20081;-63
2022/01/11 04:09:11;;;;;;;25.70;15.80;;;3.50;78.70;;;;;;5093908;28;20444;-63
2022/01/11 04:11:37;;;;;;;28.13;15.40;;;3.50;78.80;;;;;;5093844;28;20039;-63
2022/01/11 04:14:03;;;;;;;26.00;15.17;;;3.60;78.80;;;;;;5094093;28;20020;-64
2022/01/11 04:16:28;;;;;;;27.63;15.67;;;3.60;78.80;;;;;;5093775;28;20110;-63
2022/01/11 04:18:56;;;;;;;27.47;16.30;;;3.60;78.80;;;;;;5093552;28;20012;-63
2022/01/11 04:21:22;;;;;;;28.07;14.53;;;3.60;78.70;;;;;;5093777;28;20034;-63
2022/01/11 04:23:53;;;;;;;30.13;16.33;;;3.60;78.70;;;;;;5093381;28;20016;-64
2022/01/11 04:26:19;;;;;;;28.43;16.50;;;3.60;78.70;;;;;;5093809;28;20108;-63
2022/01/11 04:28:45;;;;;;;29.93;16.30;;;3.50;78.70;;;;;;5093412;28;20044;-63
2022/01/11 04:31:11;;;;;;;32.27;17.73;;;3.50;78.80;;;;;;5093028;28;20020;-63
2022/01/11 04:33:42;;;;;;;27.80;16.07;;;3.50;78.80;;;;;;5093805;28;20027;-63
2022/01/11 04:36:08;;;;;;;29.27;16.45;;;3.50;78.80;;;;;;5094026;28;20081;-64
2022/01/11 04:38:34;;;;;;;26.17;15.57;;;3.60;78.90;;;;;;5094026;28;20035;-63
2022/01/11 04:41:00;;;;;;;28.13;16.33;;;3.50;78.90;;;;;;5093737;28;20020;-64
2022/01/11 04:43:31;;;;;;;32.47;16.90;;;3.50;78.90;;;;;;5093616;28;20146;-64
2022/01/11 04:45:57;;;;;;;29.27;16.80;;;3.50;78.90;;;;;;5092986;28;20126;-64
2022/01/11 04:48:23;;;;;;;32.73;17.00;;;3.50;78.90;;;;;;5093394;28;20406;-63
2022/01/11 04:50:49;;;;;;;28.50;16.47;;;3.50;78.80;;;;;;5093008;28;20031;-64
2022/01/11 04:53:17;;;;;;;27.97;17.33;;;3.60;78.90;;;;;;5109733;28;20020;-63
2022/01/11 04:55:43;;;;;;;31.93;18.77;;;3.50;78.80;;;;;;5094431;28;20024;-64
2022/01/11 04:58:09;;;;;;;33.90;18.87;;;3.50;78.90;;;;;;5092820;28;20107;-64
2022/01/11 05:00:35;;;;;;;36.10;20.63;;;3.50;79.00;;;;;;5093135;28;20527;-63
2022/01/11 05:03:00;;;;;;;33.03;18.97;;;3.50;79.00;;;;;;5093977;28;20039;-63
2022/01/11 05:05:29;;;;;;;32.37;16.93;;;3.50;79.00;;;;;;5093320;28;20434;-63
2022/01/11 05:07:56;;;;;;;29.07;16.50;;;3.50;79.00;;;;;;5094401;28;20400;-63
2022/01/11 05:10:23;;;;;;;29.03;15.63;;;3.50;79.00;;;;;;5093358;28;20563;-63
2022/01/11 05:12:49;;;;;;;30.17;15.87;;;3.50;79.00;;;;;;5102327;28;20044;-63
2022/01/11 05:15:16;;;;;;;29.60;17.53;;;3.50;79.00;;;;;;5093320;28;20046;-63
2022/01/11 05:17:43;;;;;;;28.43;16.77;;;3.50;79.00;;;;;;5093084;28;20376;-64
2022/01/11 05:20:10;;;;;;;29.07;16.67;;;3.60;79.00;;;;;;5092986;28;20020;-64
2022/01/11 05:22:36;;;;;;;31.27;16.90;;;3.50;79.00;;;;;;5093082;28;20024;-64
2022/01/11 05:25:02;;;;;;;28.00;15.93;;;3.60;79.00;;;;;;5094035;28;20028;-64
2022/01/11 05:27:29;;;;;;;30.57;17.30;;;3.60;79.00;;;;;;5092620;28;20364;-63
2022/01/11 05:29:55;;;;;;;30.23;16.70;;;3.50;78.90;;;;;;5092466;28;20042;-65
2022/01/11 05:32:20;;;;;;;28.67;16.07;;;3.50;78.90;;;;;;5092971;28;20020;-64
2022/01/11 05:34:47;;;;;;;27.20;15.90;;;3.50;78.90;;;;;;5099499;28;20407;-64
2022/01/11 05:37:12;;;;;;;26.10;14.23;;;3.50;78.90;;;;;;5087760;28;20036;-64
2022/01/11 05:39:38;;;;;;;29.10;16.70;;;3.50;79.60;;;;;;5091497;28;20032;-64
2022/01/11 05:42:08;;;;;;;29.53;16.03;;;3.50;79.00;;;;;;5074819;28;20028;-64
2022/01/11 05:44:35;;;;;;;29.93;16.27;;;3.50;79.00;;;;;;5090309;28;20028;-63
2022/01/11 05:47:02;;;;;;;28.77;16.10;;;3.50;79.10;;;;;;5093671;28;20068;-64
2022/01/11 05:49:30;;;;;;;30.20;15.83;;;3.50;79.00;;;;;;5096757;28;20020;-64
2022/01/11 05:51:55;;;;;;;25.10;15.23;;;3.50;79.00;;;;;;5097194;28;20054;-64
2022/01/11 05:54:21;;;;;;;30.10;15.67;;;3.50;78.90;;;;;;5097538;28;20024;-64
2022/01/11 05:56:47;;;;;;;26.53;14.40;;;3.50;79.00;;;;;;5096778;28;20111;-64
2022/01/11 05:59:13;;;;;;;24.87;13.63;;;3.50;78.90;;;;;;5097272;28;20044;-64
2022/01/11 06:01:38;;;;;;;26.03;14.83;;;3.60;78.90;;;;;;5094847;28;20024;-64
2022/01/11 06:04:04;;;;;;;26.40;14.90;;;3.50;78.90;;;;;;5100109;28;20039;-64
2022/01/11 06:06:30;;;;;;;26.57;14.73;;;3.50;78.90;;;;;;5079665;28;20028;-64
2022/01/11 06:08:56;;;;;;;25.80;15.37;;;3.50;78.90;;;;;;5095189;28;20024;-63
2022/01/11 06:11:21;;;;;;;29.50;15.97;;;3.50;78.90;;;;;;5096651;28;20032;-64
2022/01/11 06:13:51;;;;;;;22.47;13.40;;;3.50;79.00;;;;;;5096152;28;20463;-64
2022/01/11 06:16:17;;;;;;;20.50;12.47;;;3.50;78.90;;;;;;5097614;28;20016;-65
2022/01/11 06:18:45;;;;;;;27.27;16.07;;;3.50;78.90;;;;;;5095996;28;20028;-65
2022/01/11 06:21:19;;;;;;;27.67;14.87;;;3.50;78.90;;;;;;5080761;28;20032;-65
2022/01/11 06:23:46;;;;;;;26.47;14.63;;;3.50;79.00;;;;;;5104720;28;20028;-65
2022/01/11 06:26:13;;;;;;;28.63;16.60;;;3.50;79.00;;;;;;5079312;28;20038;-65
2022/01/11 06:28:39;;;;;;;29.13;14.83;;;3.50;79.00;;;;;;5079017;28;20093;-65
2022/01/11 06:31:07;;;;;;;29.37;16.93;;;3.50;79.00;;;;;;5096262;28;20055;-65
2022/01/11 06:33:34;;;;;;;29.13;16.23;;;3.50;79.00;;;;;;5095826;28;20032;-67
2022/01/11 06:35:59;;;;;;;27.83;15.73;;;3.50;79.00;;;;;;5095591;28;20449;-65
2022/01/11 06:38:25;;;;;;;25.87;15.13;;;3.50;79.10;;;;;;5095155;28;20028;-65
2022/01/11 06:40:52;;;;;;;28.57;17.10;;;3.50;79.00;;;;;;5094448;28;20027;-65
2022/01/11 06:43:19;;;;;;;29.53;17.27;;;3.50;78.90;;;;;;5075735;28;20085;-65
2022/01/11 06:45:45;;;;;;;26.93;16.67;;;3.50;78.90;;;;;;5091687;28;20429;-65
2022/01/11 06:48:14;;;;;;;31.17;17.17;;;3.50;78.90;;;;;;5083283;28;20028;-65
2022/01/11 06:50:40;;;;;;;36.67;19.20;;;3.50;78.80;;;;;;5094590;28;20036;-65
2022/01/11 06:53:06;;;;;;;31.07;17.60;;;3.50;78.80;;;;;;5094798;28;20028;-65
2022/01/11 06:55:34;;;;;;;32.80;19.00;;;3.50;78.70;;;;;;5095060;28;20024;-65
2022/01/11 06:58:00;;;;;;;31.80;18.27;;;3.50;78.80;;;;;;5095364;28;20030;-65
2022/01/11 07:00:26;;;;;;;27.93;16.27;;;3.50;78.80;;;;;;5094972;28;20124;-65
2022/01/11 07:02:57;;;;;;;27.73;17.20;;;3.50;78.70;;;;;;5095253;28;20028;-65
2022/01/11 07:05:42;;;;;;;31.53;16.33;;;3.60;78.70;;;;;;5092829;28;20312;-65
2022/01/11 07:08:09;;;;;;;32.40;17.23;;;3.60;78.50;;;;;;5078182;28;20051;-65
2022/01/11 07:10:35;;;;;;;35.50;19.53;;;3.70;78.50;;;;;;5077488;28;20058;-65
2022/01/11 07:13:02;;;;;;;33.30;20.00;;;3.80;78.40;;;;;;5094791;28;20024;-65
2022/01/11 07:15:30;;;;;;;35.37;19.80;;;3.80;78.20;;;;;;5094764;28;20082;-65
2022/01/11 07:17:56;;;;;;;40.10;21.17;;;3.80;78.20;;;;;;5094209;28;20453;-64
2022/01/11 07:20:22;;;;;;;35.67;20.83;;;3.70;78.30;;;;;;5077494;28;20024;-64
2022/01/11 07:22:49;;;;;;;36.97;19.43;;;3.70;78.30;;;;;;5094006;28;20032;-64
2022/01/11 07:25:15;;;;;;;34.87;20.03;;;3.70;79.00;;;;;;5094368;28;20027;-64
2022/01/11 07:27:41;;;;;;;33.97;18.90;;;3.60;78.40;;;;;;5094499;28;20489;-65
2022/01/11 07:30:09;;;;;;;37.47;19.67;;;3.60;78.40;;;;;;5094906;28;20379;-64
2022/01/11 07:32:41;;;;;;;32.30;17.80;;;3.60;78.40;;;;;;5093762;28;20071;-64
2022/01/11 07:35:08;;;;;;;35.07;19.13;;;3.70;78.40;;;;;;5077473;28;20025;-64
2022/01/11 07:37:34;;;;;;;34.17;18.70;;;3.70;78.30;;;;;;5094349;28;20016;-65
2022/01/11 07:40:02;;;;;;;37.07;20.23;;;3.60;78.30;;;;;;5094170;28;20032;-64
2022/01/11 07:42:29;;;;;;;37.13;20.50;;;3.70;78.30;;;;;;5094281;28;20024;-64
2022/01/11 07:45:10;;;;;;;33.20;19.37;;;3.70;78.20;;;;;;5094535;28;20453;-64
2022/01/11 07:47:36;;;;;;;33.50;18.53;;;3.70;78.30;;;;;;5093213;28;20032;-64
2022/01/11 07:50:03;;;;;;;32.37;18.83;;;3.60;78.20;;;;;;5083906;28;20391;-64
2022/01/11 07:52:28;;;;;;;34.77;20.43;;;3.60;78.30;;;;;;5108280;28;20019;-64
2022/01/11 07:54:57;;;;;;;36.90;21.80;;;3.60;78.30;;;;;;5094341;28;20024;-64
2022/01/11 07:57:24;;;;;;;34.47;20.37;;;3.60;78.30;;;;;;5093012;28;20073;-64
2022/01/11 07:59:51;;;;;;;31.17;17.87;;;3.60;78.30;;;;;;5093941;28;20023;-65
2022/01/11 08:02:17;;;;;;;32.60;18.97;;;3.60;78.40;;;;;;5093705;28;20360;-65
2022/01/11 08:04:43;;;;;;;31.97;18.23;;;3.60;78.40;;;;;;5089471;28;20111;-64
2022/01/11 08:07:10;;;;;;;27.27;16.33;;;3.60;78.30;;;;;;5090071;28;20040;-65
2022/01/11 08:09:43;;;;;;;26.83;16.23;;;3.60;78.30;;;;;;5092235;28;20469;-65
2022/01/11 08:12:09;;;;;;;25.17;14.33;;;3.60;78.20;;;;;;5093300;28;20032;-65
2022/01/11 08:14:35;;;;;;;21.43;13.43;;;3.60;78.20;;;;;;5094528;28;20021;-64
2022/01/11 08:17:01;;;;;;;22.70;14.67;;;3.70;78.20;;;;;;5082075;28;20400;-64
2022/01/11 08:19:27;;;;;;;22.70;14.47;;;3.70;78.10;;;;;;5083350;28;20021;-64
2022/01/11 08:21:55;;;;;;;25.53;15.20;;;3.80;78.00;;;;;;5073990;28;20037;-64
2022/01/11 08:24:24;;;;;;;25.30;15.03;;;3.80;77.90;;;;;;5108732;28;20067;-64
2022/01/11 08:26:51;;;;;;;27.00;15.00;;;3.90;77.80;;;;;;5092925;28;20379;-64
2022/01/11 08:29:18;;;;;;;22.77;13.03;;;3.90;77.80;;;;;;5072720;28;20115;-64
2022/01/11 08:31:47;;;;;;;25.37;14.23;;;3.90;77.70;;;;;;5089174;28;20469;-64
2022/01/11 08:34:14;;;;;;;23.57;13.57;;;4.00;77.60;;;;;;5089418;28;20024;-64
2022/01/11 08:36:43;;;;;;;20.07;12.43;;;4.10;77.40;;;;;;5098493;28;20027;-64
2022/01/11 08:39:10;;;;;;;25.73;15.03;;;4.10;77.30;;;;;;5093157;28;20349;-64
2022/01/11 08:41:40;;;;;;;23.67;13.23;;;4.10;77.10;;;;;;5093524;28;20020;-64
2022/01/11 08:44:09;;;;;;;22.17;13.10;;;4.20;77.10;;;;;;5092895;28;20416;-64
2022/01/11 08:46:37;;;;;;;25.07;14.53;;;4.20;76.90;;;;;;5094261;28;20036;-64
2022/01/11 08:49:09;;;;;;;28.13;14.53;;;4.20;76.90;;;;;;5087348;28;20016;-65
2022/01/11 08:51:34;;;;;;;23.90;14.13;;;4.20;76.80;;;;;;5072594;28;20024;-65
2022/01/11 08:54:01;;;;;;;26.03;15.63;;;4.30;76.70;;;;;;5085431;28;20043;-65
2022/01/11 08:56:27;;;;;;;22.63;12.93;;;4.40;76.50;;;;;;5093162;28;20115;-65
2022/01/11 08:58:54;;;;;;;21.13;12.20;;;4.40;76.40;;;;;;5086061;28;20452;-65
2022/01/11 09:01:27;;;;;;;22.27;13.23;;;4.40;76.30;;;;;;5093140;28;20024;-65
2022/01/11 09:03:54;;;;;;;22.80;14.03;;;4.40;76.30;;;;;;5099009;28;20115;-64
2022/01/11 09:06:21;;;;;;;24.93;14.87;;;4.30;76.20;;;;;;5092679;28;20024;-64
2022/01/11 09:08:47;;;;;;;23.97;14.77;;;4.40;76.20;;;;;;5092238;28;20024;-64
2022/01/11 09:11:13;;;;;;;23.47;13.23;;;4.40;76.20;;;;;;5092916;28;20123;-64
2022/01/11 09:13:41;;;;;;;22.90;12.87;;;4.40;76.20;;;;;;5092931;28;20024;-64
2022/01/11 09:16:11;;;;;;;22.03;13.73;;;4.40;76.10;;;;;;5105970;28;20134;-65
2022/01/11 09:18:38;;;;;;;24.93;13.33;;;4.40;76.10;;;;;;5091694;28;20031;-65
2022/01/11 09:21:05;;;;;;;24.27;14.20;;;4.50;76.00;;;;;;5092809;28;20085;-64
2022/01/11 09:23:32;;;;;;;23.67;13.07;;;4.60;75.80;;;;;;5094950;28;20024;-65
2022/01/11 09:25:59;;;;;;;26.57;14.90;;;4.60;75.70;;;;;;5093015;28;20119;-65
2022/01/11 09:28:25;;;;;;;23.00;14.60;;;4.70;76.30;;;;;;5094140;28;20068;-65
2022/01/11 09:30:51;;;;;;;26.10;14.97;;;4.80;75.60;;;;;;5093779;28;20421;-65
2022/01/11 09:33:18;;;;;;;25.00;14.17;;;4.80;75.40;;;;;;5094444;28;20325;-65
2022/01/11 09:35:45;;;;;;;24.37;14.63;;;4.90;75.30;;;;;;5078949;28;20081;-65
2022/01/11 09:38:15;;;;;;;23.03;13.53;;;5.00;75.20;;;;;;5083368;28;20012;-64
2022/01/11 09:40:43;;;;;;;23.37;14.03;;;5.00;75.00;;;;;;5095322;28;20540;-64
2022/01/11 09:43:11;;;;;;;25.40;14.43;;;5.10;74.90;;;;;;5097224;28;20154;-65
2022/01/11 09:45:37;;;;;;;18.90;12.13;;;5.10;74.70;;;;;;5097295;28;20508;-65
2022/01/11 09:48:04;;;;;;;20.60;12.50;;;5.20;74.60;;;;;;5096468;28;20399;-64
2022/01/11 09:50:35;;;;;;;25.73;14.57;;;5.20;74.50;;;;;;5080288;28;20024;-65
2022/01/11 09:53:04;;;;;;;25.10;14.53;;;5.30;74.50;;;;;;5080483;28;20058;-64
2022/01/11 09:55:32;;;;;;;23.77;13.10;;;5.30;74.50;;;;;;5096074;28;20027;-65
2022/01/11 09:58:00;;;;;;;26.27;14.83;;;5.20;74.50;;;;;;5096628;28;20346;-64
2022/01/11 10:00:57;;;;;;;23.17;13.93;;;5.20;74.50;;;;;;5097265;28;20036;-64
2022/01/11 10:04:06;;;;;;;22.10;12.13;;;5.20;74.60;;;;;;5097013;28;20051;-64
2022/01/11 10:06:59;;;;;;;25.33;13.40;;;5.20;74.40;;;;;;5097024;28;20040;-64
2022/01/11 10:09:29;;;;;;;23.03;12.73;;;5.20;74.60;;;;;;5096650;28;20352;-64
2022/01/11 10:11:57;;;;;;;24.67;13.73;;;5.20;74.60;;;;;;5096755;28;20038;-64
2022/01/11 10:14:31;;;;;;;23.00;14.13;;;5.20;74.60;;;;;;5096463;28;20016;-64
2022/01/11 10:17:22;;;;;;;24.60;14.10;;;5.10;74.70;;;;;;5096835;28;20024;-64
2022/01/11 10:20:11;;;;;;;24.70;14.17;;;5.20;74.80;;;;;;5096500;28;20035;-64
2022/01/11 10:23:07;;;;;;;25.53;14.93;;;5.20;74.90;;;;;;5096764;28;20059;-64
2022/01/11 10:25:46;;;;;;;25.47;12.10;;;5.20;74.90;;;;;;5096551;28;20024;-64
2022/01/11 10:28:13;;;;;;;26.67;13.87;;;5.20;75.00;;;;;;5078705;28;20048;-64
2022/01/11 10:30:42;;;;;;;29.27;13.67;;;5.20;75.00;;;;;;5095223;28;20039;-65
2022/01/11 10:33:09;;;;;;;28.40;14.30;;;5.20;75.00;;;;;;5095763;28;20031;-64
2022/01/11 10:35:45;;;;;;;26.93;14.60;;;5.20;75.00;;;;;;5095762;28;20024;-64
2022/01/11 10:38:38;;;;;;;27.90;14.57;;;5.30;75.00;;;;;;5090382;28;20475;-64
2022/01/11 10:41:11;;;;;;;30.77;16.57;;;5.30;75.00;;;;;;5094633;28;20057;-64
2022/01/11 10:43:44;;;;;;;27.77;13.93;;;5.30;75.10;;;;;;5079031;28;20039;-64
2022/01/11 10:46:16;;;;;;;24.83;14.23;;;5.40;75.10;;;;;;5075064;28;20027;-64
2022/01/11 10:48:44;;;;;;;25.53;13.00;;;5.40;75.00;;;;;;5078552;28;20054;-64
2022/01/11 10:51:14;;;;;;;25.20;13.67;;;5.40;74.90;;;;;;5089847;28;20032;-64
2022/01/11 10:53:48;;;;;;;25.02;14.27;;;5.50;74.90;;;;;;5078860;28;20073;-64
2022/01/11 10:56:16;;;;;;;26.97;14.17;;;5.50;74.80;;;;;;5071142;28;20017;-64
2022/01/11 10:59:10;;;;;;;28.67;14.97;;;5.50;74.80;;;;;;5093218;28;20027;-64
2022/01/11 11:01:38;;;;;;;24.87;12.50;;;5.60;74.80;;;;;;5104654;28;20045;-64
2022/01/11 11:04:05;;;;;;;24.60;12.03;;;5.60;74.80;;;;;;5091827;28;20020;-64
2022/01/11 11:06:31;;;;;;;25.67;13.07;;;5.70;74.70;;;;;;5089369;28;20027;-63
2022/01/11 11:08:56;;;;;;;24.93;13.63;;;5.70;74.70;;;;;;5094060;28;20031;-64
2022/01/11 11:11:27;;;;;;;23.73;12.93;;;5.70;74.60;;;;;;5094224;28;20032;-64
2022/01/11 11:14:11;;;;;;;27.90;14.57;;;5.80;74.60;;;;;;5091208;28;20157;-63
2022/01/11 11:16:41;;;;;;;30.17;14.20;;;5.80;74.60;;;;;;5076325;28;20016;-63
2022/01/11 11:19:10;;;;;;;25.30;13.70;;;5.80;74.50;;;;;;5093874;28;20035;-63
2022/01/11 11:22:05;;;;;;;24.50;12.93;;;5.80;74.50;;;;;;5083131;28;20036;-63
2022/01/11 11:24:31;;;;;;;26.47;15.17;;;5.80;74.50;;;;;;5096449;28;20028;-64
2022/01/11 11:26:56;;;;;;;23.73;11.70;;;5.90;74.50;;;;;;5096452;28;20032;-63
2022/01/11 11:29:22;;;;;;;25.07;13.30;;;5.90;74.40;;;;;;5095551;28;20106;-63
2022/01/11 11:31:49;;;;;;;27.33;13.77;;;6.00;74.40;;;;;;5096257;28;20047;-63
2022/01/11 11:34:15;;;;;;;24.80;12.53;;;6.00;74.30;;;;;;5078201;28;20028;-63
2022/01/11 11:36:41;;;;;;;28.90;12.20;;;6.10;74.30;;;;;;5095075;28;20039;-63
2022/01/11 11:39:21;;;;;;;26.07;12.07;;;6.10;74.10;;;;;;5089344;28;20021;-63
2022/01/11 11:41:51;;;;;;;26.90;13.50;;;6.20;74.00;;;;;;5075824;28;20040;-64
2022/01/11 11:44:26;;;;;;;25.63;14.07;;;6.30;73.80;;;;;;5074357;28;20029;-64
2022/01/11 11:46:55;;;;;;;26.60;13.10;;;6.30;73.50;;;;;;5075945;28;20036;-64
2022/01/11 11:49:47;;;;;;;24.90;13.10;;;6.40;73.50;;;;;;5074668;28;20036;-64
2022/01/11 11:52:28;;;;;;;25.52;13.27;;;6.40;73.30;;;;;;5075350;28;20041;-64
2022/01/11 11:55:03;;;;;;;23.90;12.95;;;6.40;73.30;;;;;;5075638;28;20099;-64
2022/01/11 11:57:31;;;;;;;23.03;12.87;;;6.40;73.30;;;;;;5075372;28;20357;-64
2022/01/11 12:00:11;;;;;;;20.57;10.57;;;6.40;73.30;;;;;;5075377;28;20064;-63
2022/01/11 12:02:42;;;;;;;24.90;11.90;;;6.40;73.20;;;;;;5075540;28;20024;-63
2022/01/11 12:05:11;;;;;;;23.40;10.93;;;6.40;73.10;;;;;;5075169;28;20028;-63
2022/01/11 12:07:43;;;;;;;23.50;11.60;;;6.50;73.10;;;;;;5075118;28;20029;-63
2022/01/11 12:10:25;;;;;;;22.90;11.50;;;6.50;73.00;;;;;;5075469;28;20028;-63
2022/01/11 12:12:54;;;;;;;22.35;11.85;;;6.50;72.90;;;;;;5074499;28;20025;-63
2022/01/11 12:15:23;;;;;;;22.87;12.60;;;6.50;72.80;;;;;;5080806;28;20464;-63
2022/01/11 12:17:57;;;;;;;19.63;10.73;;;6.60;72.70;;;;;;5095491;28;20032;-63
2022/01/11 12:20:56;;;;;;;21.90;10.37;;;6.60;72.50;;;;;;5095892;28;20063;-63
2022/01/11 12:23:34;;;;;;;20.77;11.37;;;6.60;72.30;;;;;;5076435;28;20415;-63
2022/01/11 12:26:16;;;;;;;22.30;11.70;;;6.60;72.20;;;;;;5094262;28;20042;-63
2022/01/11 12:29:02;;;;;;;20.37;11.20;;;6.60;72.00;;;;;;5094361;28;20040;-63
2022/01/11 12:31:37;;;;;;;22.80;11.43;;;6.60;72.00;;;;;;5093647;28;20052;-63
2022/01/11 12:34:06;;;;;;;17.73;9.33;;;6.60;71.90;;;;;;5094995;28;20028;-63
2022/01/11 12:36:57;;;;;;;22.30;11.13;;;6.60;71.90;;;;;;5095282;28;20028;-63
2022/01/11 12:39:24;;;;;;;23.67;11.70;;;6.70;71.90;;;;;;5091471;28;20024;-63
2022/01/11 12:41:51;;;;;;;21.40;10.60;;;6.60;71.70;;;;;;5074884;28;20024;-63
2022/01/11 12:44:32;;;;;;;20.50;11.30;;;6.60;71.70;;;;;;5073782;28;20433;-63
2022/01/11 12:47:00;;;;;;;18.93;11.63;;;6.60;71.60;;;;;;5074979;28;20036;-63